sensor_id;sensor_type;location;lat;lon;timestamp;pressure;altitude;pressure_sealevel;temperature;humidity
16544;BME280;8384;47.996;7.786;2023-03-13T00:01:56;98412.41;;;11.67;60.07
16544;BME280;8384;47.996;7.786;2023-03-13T00:04:22;98424.16;;;11.73;60.82
16544;BME280;8384;47.996;7.786;2023-03-13T00:06:47;98399.81;;;11.72;60.75
16544;BME280;8384;47.996;7.786;2023-03-13T00:09:15;98433.19;;;11.79;60.64
16544;BME280;8384;47.996;7.786;2023-03-13T00:11:40;98404.75;;;11.69;60.15
16544;BME280;8384;47.996;7.786;2023-03-13T00:14:07;98437.00;;;11.88;60.59
16544;BME280;8384;47.996;7.786;2023-03-13T00:16:33;98410.72;;;11.92;60.46
16544;BME280;8384;47.996;7.786;2023-03-13T00:19:08;98416.75;;;11.79;60.31
16544;BME280;8384;47.996;7.786;2023-03-13T00:21:33;98423.88;;;11.90;60.54
16544;BME280;8384;47.996;7.786;2023-03-13T00:24:01;98421.13;;;11.95;60.28
16544;BME280;8384;47.996;7.786;2023-03-13T00:26:27;98430.69;;;11.98;59.93
16544;BME280;8384;47.996;7.786;2023-03-13T00:28:52;98395.16;;;11.67;60.54
16544;BME280;8384;47.996;7.786;2023-03-13T00:31:20;98395.94;;;11.88;60.35
16544;BME280;8384;47.996;7.786;2023-03-13T00:33:48;98414.28;;;11.88;60.93
16544;BME280;8384;47.996;7.786;2023-03-13T00:36:16;98401.41;;;11.93;60.47
16544;BME280;8384;47.996;7.786;2023-03-13T00:38:42;98384.44;;;11.81;60.91
16544;BME280;8384;47.996;7.786;2023-03-13T00:41:10;98383.91;;;11.79;60.60
16544;BME280;8384;47.996;7.786;2023-03-13T00:43:40;98400.88;;;12.02;60.49
16544;BME280;8384;47.996;7.786;2023-03-13T00:46:05;98400.03;;;12.01;60.44
16544;BME280;8384;47.996;7.786;2023-03-13T00:48:31;98397.84;;;12.03;60.16
16544;BME280;8384;47.996;7.786;2023-03-13T00:50:57;98390.91;;;12.21;59.74
16544;BME280;8384;47.996;7.786;2023-03-13T00:53:23;98383.56;;;12.11;59.90
16544;BME280;8384;47.996;7.786;2023-03-13T00:56:05;98404.38;;;12.12;59.90
16544;BME280;8384;47.996;7.786;2023-03-13T00:58:33;98352.34;;;12.07;59.34
16544;BME280;8384;47.996;7.786;2023-03-13T01:01:20;98397.47;;;12.25;59.20
16544;BME280;8384;47.996;7.786;2023-03-13T01:03:51;98402.13;;;12.25;59.62
16544;BME280;8384;47.996;7.786;2023-03-13T01:06:21;98384.94;;;12.09;59.75
16544;BME280;8384;47.996;7.786;2023-03-13T01:08:47;98391.16;;;12.25;59.67
16544;BME280;8384;47.996;7.786;2023-03-13T01:11:18;98385.47;;;12.11;60.04
16544;BME280;8384;47.996;7.786;2023-03-13T01:13:44;98382.38;;;12.28;59.09
16544;BME280;8384;47.996;7.786;2023-03-13T01:16:12;98368.94;;;12.32;60.12
16544;BME280;8384;47.996;7.786;2023-03-13T01:18:39;98390.63;;;12.23;60.60
16544;BME280;8384;47.996;7.786;2023-03-13T01:21:06;98381.91;;;12.15;62.56
16544;BME280;8384;47.996;7.786;2023-03-13T01:23:31;98387.41;;;11.95;65.13
16544;BME280;8384;47.996;7.786;2023-03-13T01:25:57;98388.81;;;11.87;65.90
16544;BME280;8384;47.996;7.786;2023-03-13T01:28:23;98382.25;;;11.88;67.59
16544;BME280;8384;47.996;7.786;2023-03-13T01:30:49;98372.75;;;11.49;68.31
16544;BME280;8384;47.996;7.786;2023-03-13T01:33:14;98345.97;;;11.25;69.66
16544;BME280;8384;47.996;7.786;2023-03-13T01:35:40;98372.50;;;11.46;69.94
16544;BME280;8384;47.996;7.786;2023-03-13T01:38:05;98352.81;;;11.33;71.57
16544;BME280;8384;47.996;7.786;2023-03-13T01:40:38;98373.03;;;11.27;72.14
16544;BME280;8384;47.996;7.786;2023-03-13T01:43:21;98362.91;;;11.43;69.27
16544;BME280;8384;47.996;7.786;2023-03-13T01:48:27;98360.47;;;11.36;69.36
16544;BME280;8384;47.996;7.786;2023-03-13T01:50:56;98335.59;;;11.28;68.26
16544;BME280;8384;47.996;7.786;2023-03-13T01:53:24;98348.66;;;11.57;66.13
16544;BME280;8384;47.996;7.786;2023-03-13T01:55:51;98350.03;;;11.54;66.09
16544;BME280;8384;47.996;7.786;2023-03-13T01:58:17;98320.50;;;11.51;67.32
16544;BME280;8384;47.996;7.786;2023-03-13T02:00:43;98319.41;;;11.36;68.02
16544;BME280;8384;47.996;7.786;2023-03-13T02:03:11;98340.19;;;11.48;66.44
16544;BME280;8384;47.996;7.786;2023-03-13T02:05:40;98342.91;;;11.53;66.35
16544;BME280;8384;47.996;7.786;2023-03-13T02:08:10;98340.69;;;11.65;66.59
16544;BME280;8384;47.996;7.786;2023-03-13T02:10:47;98342.38;;;11.51;66.47
16544;BME280;8384;47.996;7.786;2023-03-13T02:13:14;98337.19;;;11.44;67.01
16544;BME280;8384;47.996;7.786;2023-03-13T02:15:41;98323.25;;;11.40;67.06
16544;BME280;8384;47.996;7.786;2023-03-13T02:18:06;98335.22;;;11.60;65.85
16544;BME280;8384;47.996;7.786;2023-03-13T02:20:32;98315.03;;;11.51;66.42
16544;BME280;8384;47.996;7.786;2023-03-13T02:23:40;98313.88;;;11.57;66.04
16544;BME280;8384;47.996;7.786;2023-03-13T02:25:47;98293.91;;;11.62;65.44
16544;BME280;8384;47.996;7.786;2023-03-13T02:28:24;98305.94;;;11.61;65.69
16544;BME280;8384;47.996;7.786;2023-03-13T02:30:53;98285.41;;;11.58;65.77
16544;BME280;8384;47.996;7.786;2023-03-13T02:33:20;98256.16;;;11.48;65.73
16544;BME280;8384;47.996;7.786;2023-03-13T02:35:47;98251.22;;;11.50;66.21
16544;BME280;8384;47.996;7.786;2023-03-13T02:38:16;98275.31;;;11.53;66.80
16544;BME280;8384;47.996;7.786;2023-03-13T02:40:45;98269.31;;;11.41;66.23
16544;BME280;8384;47.996;7.786;2023-03-13T02:43:25;98259.75;;;11.49;66.29
16544;BME280;8384;47.996;7.786;2023-03-13T02:46:12;98261.16;;;11.31;67.09
16544;BME280;8384;47.996;7.786;2023-03-13T02:48:43;98258.44;;;11.20;67.02
16544;BME280;8384;47.996;7.786;2023-03-13T02:54:24;98246.97;;;11.13;67.67
16544;BME280;8384;47.996;7.786;2023-03-13T02:56:54;98246.97;;;11.13;67.85
16544;BME280;8384;47.996;7.786;2023-03-13T02:59:21;98254.34;;;11.13;68.42
16544;BME280;8384;47.996;7.786;2023-03-13T03:01:46;98245.34;;;11.02;68.80
16544;BME280;8384;47.996;7.786;2023-03-13T03:04:11;98251.91;;;11.06;69.32
16544;BME280;8384;47.996;7.786;2023-03-13T03:06:37;98254.41;;;10.97;69.33
16544;BME280;8384;47.996;7.786;2023-03-13T03:09:02;98273.50;;;11.02;70.28
16544;BME280;8384;47.996;7.786;2023-03-13T03:11:28;98273.25;;;10.93;70.50
16544;BME280;8384;47.996;7.786;2023-03-13T03:13:53;98261.50;;;10.88;71.54
16544;BME280;8384;47.996;7.786;2023-03-13T03:16:18;98244.31;;;10.82;71.78
16544;BME280;8384;47.996;7.786;2023-03-13T03:18:44;98286.38;;;10.91;71.82
16544;BME280;8384;47.996;7.786;2023-03-13T03:21:10;98267.00;;;10.72;73.28
16544;BME280;8384;47.996;7.786;2023-03-13T03:23:36;98260.69;;;10.87;72.41
16544;BME280;8384;47.996;7.786;2023-03-13T03:26:05;98270.00;;;10.76;73.13
16544;BME280;8384;47.996;7.786;2023-03-13T03:28:30;98235.00;;;10.78;73.21
16544;BME280;8384;47.996;7.786;2023-03-13T03:30:56;98263.16;;;10.73;72.97
16544;BME280;8384;47.996;7.786;2023-03-13T03:33:22;98257.72;;;10.68;73.61
16544;BME280;8384;47.996;7.786;2023-03-13T03:35:49;98239.41;;;10.53;73.86
16544;BME280;8384;47.996;7.786;2023-03-13T03:38:14;98243.75;;;10.70;74.57
16544;BME280;8384;47.996;7.786;2023-03-13T03:40:40;98260.16;;;10.70;74.92
16544;BME280;8384;47.996;7.786;2023-03-13T03:43:05;98249.25;;;10.59;76.09
16544;BME280;8384;47.996;7.786;2023-03-13T03:45:30;98270.00;;;10.50;77.70
16544;BME280;8384;47.996;7.786;2023-03-13T03:47:55;98245.09;;;10.36;81.04
16544;BME280;8384;47.996;7.786;2023-03-13T03:50:26;98258.47;;;10.27;85.78
16544;BME280;8384;47.996;7.786;2023-03-13T03:52:52;98251.59;;;9.99;87.25
16544;BME280;8384;47.996;7.786;2023-03-13T03:55:18;98242.22;;;9.69;90.08
16544;BME280;8384;47.996;7.786;2023-03-13T03:57:43;98274.81;;;9.96;90.73
16544;BME280;8384;47.996;7.786;2023-03-13T04:00:09;98210.25;;;9.54;89.74
16544;BME280;8384;47.996;7.786;2023-03-13T04:02:40;98257.34;;;10.08;89.91
16544;BME280;8384;47.996;7.786;2023-03-13T04:05:06;98257.13;;;10.19;88.22
16544;BME280;8384;47.996;7.786;2023-03-13T04:07:32;98260.09;;;10.23;86.67
16544;BME280;8384;47.996;7.786;2023-03-13T04:09:57;98249.44;;;10.27;86.03
16544;BME280;8384;47.996;7.786;2023-03-13T04:12:22;98242.66;;;10.45;84.24
16544;BME280;8384;47.996;7.786;2023-03-13T04:14:47;98245.38;;;10.60;82.63
16544;BME280;8384;47.996;7.786;2023-03-13T04:17:13;98236.94;;;10.67;81.64
16544;BME280;8384;47.996;7.786;2023-03-13T04:19:38;98230.34;;;10.73;81.26
16544;BME280;8384;47.996;7.786;2023-03-13T04:22:04;98227.34;;;10.70;81.40
16544;BME280;8384;47.996;7.786;2023-03-13T04:24:29;98222.44;;;10.72;80.17
16544;BME280;8384;47.996;7.786;2023-03-13T04:26:55;98213.13;;;10.83;78.87
16544;BME280;8384;47.996;7.786;2023-03-13T04:29:20;98215.53;;;11.00;78.60
16544;BME280;8384;47.996;7.786;2023-03-13T04:31:45;98217.19;;;11.01;77.47
16544;BME280;8384;47.996;7.786;2023-03-13T04:34:10;98198.31;;;11.05;77.31
16544;BME280;8384;47.996;7.786;2023-03-13T04:36:36;98189.25;;;11.09;77.22
16544;BME280;8384;47.996;7.786;2023-03-13T04:39:01;98190.69;;;10.97;77.36
16544;BME280;8384;47.996;7.786;2023-03-13T04:41:27;98206.50;;;11.10;76.97
16544;BME280;8384;47.996;7.786;2023-03-13T04:43:52;98197.78;;;10.92;77.76
16544;BME280;8384;47.996;7.786;2023-03-13T04:46:17;98216.06;;;11.07;77.19
16544;BME280;8384;47.996;7.786;2023-03-13T04:48:43;98229.19;;;11.10;77.14
16544;BME280;8384;47.996;7.786;2023-03-13T04:51:09;98224.81;;;11.09;77.64
16544;BME280;8384;47.996;7.786;2023-03-13T04:53:34;98245.34;;;11.12;77.34
16544;BME280;8384;47.996;7.786;2023-03-13T04:55:59;98233.88;;;10.94;81.53
16544;BME280;8384;47.996;7.786;2023-03-13T04:58:25;98221.34;;;10.78;86.05
16544;BME280;8384;47.996;7.786;2023-03-13T05:00:52;98215.88;;;10.31;89.24
16544;BME280;8384;47.996;7.786;2023-03-13T05:03:17;98232.50;;;10.25;91.10
16544;BME280;8384;47.996;7.786;2023-03-13T05:05:42;98236.34;;;10.13;92.08
16544;BME280;8384;47.996;7.786;2023-03-13T05:08:08;98272.88;;;9.97;93.32
16544;BME280;8384;47.996;7.786;2023-03-13T05:10:34;98245.09;;;10.15;91.58
16544;BME280;8384;47.996;7.786;2023-03-13T05:13:00;98238.78;;;10.15;93.68
16544;BME280;8384;47.996;7.786;2023-03-13T05:15:25;98199.41;;;9.85;91.42
16544;BME280;8384;47.996;7.786;2023-03-13T05:17:50;98210.69;;;10.19;91.43
16544;BME280;8384;47.996;7.786;2023-03-13T05:20:15;98204.09;;;10.20;91.26
16544;BME280;8384;47.996;7.786;2023-03-13T05:22:41;98218.88;;;10.14;91.67
16544;BME280;8384;47.996;7.786;2023-03-13T05:25:06;98191.00;;;10.07;90.37
16544;BME280;8384;47.996;7.786;2023-03-13T05:27:32;98227.91;;;10.30;89.37
16544;BME280;8384;47.996;7.786;2023-03-13T05:29:57;98204.09;;;10.20;89.84
16544;BME280;8384;47.996;7.786;2023-03-13T05:32:22;98227.38;;;10.39;87.83
16544;BME280;8384;47.996;7.786;2023-03-13T05:34:47;98174.34;;;10.24;88.14
16544;BME280;8384;47.996;7.786;2023-03-13T05:37:13;98169.97;;;10.33;87.53
16544;BME280;8384;47.996;7.786;2023-03-13T05:39:38;98187.22;;;10.44;86.76
16544;BME280;8384;47.996;7.786;2023-03-13T05:42:03;98194.03;;;10.52;86.33
16544;BME280;8384;47.996;7.786;2023-03-13T05:44:28;98206.88;;;10.52;86.11
16544;BME280;8384;47.996;7.786;2023-03-13T05:46:54;98215.34;;;10.50;86.16
16544;BME280;8384;47.996;7.786;2023-03-13T05:49:19;98214.25;;;10.51;85.79
16544;BME280;8384;47.996;7.786;2023-03-13T05:51:44;98220.28;;;10.53;85.57
16544;BME280;8384;47.996;7.786;2023-03-13T05:54:10;98227.94;;;10.56;85.39
16544;BME280;8384;47.996;7.786;2023-03-13T05:56:35;98216.16;;;10.56;85.13
16544;BME280;8384;47.996;7.786;2023-03-13T05:59:00;98219.97;;;10.55;85.41
16544;BME280;8384;47.996;7.786;2023-03-13T06:01:26;98217.53;;;10.43;85.75
16544;BME280;8384;47.996;7.786;2023-03-13T06:03:51;98198.69;;;10.41;85.48
16544;BME280;8384;47.996;7.786;2023-03-13T06:06:16;98229.28;;;10.54;85.85
16544;BME280;8384;47.996;7.786;2023-03-13T06:08:41;98218.63;;;10.47;85.99
16544;BME280;8384;47.996;7.786;2023-03-13T06:11:07;98210.16;;;10.64;85.25
16544;BME280;8384;47.996;7.786;2023-03-13T06:13:32;98199.75;;;10.56;84.55
16544;BME280;8384;47.996;7.786;2023-03-13T06:15:58;98209.31;;;10.69;84.81
16544;BME280;8384;47.996;7.786;2023-03-13T06:18:24;98218.59;;;10.83;84.43
16544;BME280;8384;47.996;7.786;2023-03-13T06:20:55;98223.78;;;10.74;84.39
16544;BME280;8384;47.996;7.786;2023-03-13T06:23:21;98219.94;;;10.91;83.54
16544;BME280;8384;47.996;7.786;2023-03-13T06:25:46;98213.09;;;10.88;84.21
16544;BME280;8384;47.996;7.786;2023-03-13T06:28:12;98221.59;;;10.97;83.29
16544;BME280;8384;47.996;7.786;2023-03-13T06:30:37;98207.31;;;11.05;83.41
16544;BME280;8384;47.996;7.786;2023-03-13T06:33:03;98203.50;;;11.01;83.07
16544;BME280;8384;47.996;7.786;2023-03-13T06:35:28;98171.53;;;10.91;82.50
16544;BME280;8384;47.996;7.786;2023-03-13T06:37:53;98208.66;;;11.23;81.71
16544;BME280;8384;47.996;7.786;2023-03-13T06:40:19;98194.94;;;11.29;82.01
16544;BME280;8384;47.996;7.786;2023-03-13T06:42:44;98192.75;;;11.31;82.00
16544;BME280;8384;47.996;7.786;2023-03-13T06:45:09;98165.09;;;11.32;81.14
16544;BME280;8384;47.996;7.786;2023-03-13T06:47:35;98212.59;;;11.62;80.67
16544;BME280;8384;47.996;7.786;2023-03-13T06:50:00;98193.00;;;11.39;80.14
16544;BME280;8384;47.996;7.786;2023-03-13T06:52:25;98216.19;;;11.52;80.54
16544;BME280;8384;47.996;7.786;2023-03-13T06:54:50;98228.16;;;11.67;79.77
16544;BME280;8384;47.996;7.786;2023-03-13T06:57:16;98228.44;;;11.65;79.71
16544;BME280;8384;47.996;7.786;2023-03-13T06:59:41;98221.03;;;11.71;80.21
16544;BME280;8384;47.996;7.786;2023-03-13T07:02:09;98230.50;;;11.89;78.93
16544;BME280;8384;47.996;7.786;2023-03-13T07:04:35;98235.75;;;11.85;78.97
16544;BME280;8384;47.996;7.786;2023-03-13T07:07:00;98239.81;;;11.93;79.02
16544;BME280;8384;47.996;7.786;2023-03-13T07:09:25;98239.56;;;11.90;78.10
16544;BME280;8384;47.996;7.786;2023-03-13T07:11:51;98226.66;;;12.00;78.94
16544;BME280;8384;47.996;7.786;2023-03-13T07:14:16;98235.41;;;12.03;78.75
16544;BME280;8384;47.996;7.786;2023-03-13T07:16:41;98227.09;;;12.18;78.17
16544;BME280;8384;47.996;7.786;2023-03-13T07:19:07;98228.69;;;12.24;76.39
16544;BME280;8384;47.996;7.786;2023-03-13T07:21:32;98230.03;;;12.27;76.33
16544;BME280;8384;47.996;7.786;2023-03-13T07:23:57;98228.91;;;12.33;76.08
16544;BME280;8384;47.996;7.786;2023-03-13T07:26:23;98229.13;;;12.37;75.77
16544;BME280;8384;47.996;7.786;2023-03-13T07:28:48;98225.06;;;12.34;75.52
16544;BME280;8384;47.996;7.786;2023-03-13T07:31:18;98216.63;;;12.60;74.80
16544;BME280;8384;47.996;7.786;2023-03-13T07:33:44;98179.06;;;12.26;75.45
16544;BME280;8384;47.996;7.786;2023-03-13T07:36:11;98200.34;;;12.69;74.67
16544;BME280;8384;47.996;7.786;2023-03-13T07:38:36;98200.41;;;12.64;74.82
16544;BME280;8384;47.996;7.786;2023-03-13T07:41:02;98178.63;;;12.48;74.98
16544;BME280;8384;47.996;7.786;2023-03-13T07:43:28;98196.22;;;12.71;73.97
16544;BME280;8384;47.996;7.786;2023-03-13T07:48:29;98176.88;;;13.11;72.76
16544;BME280;8384;47.996;7.786;2023-03-13T07:50:56;98174.91;;;13.17;73.08
16544;BME280;8384;47.996;7.786;2023-03-13T07:53:21;98139.38;;;13.26;72.67
16544;BME280;8384;47.996;7.786;2023-03-13T07:55:54;98162.31;;;13.59;71.41
16544;BME280;8384;47.996;7.786;2023-03-13T07:58:20;98138.94;;;13.62;71.48
16544;BME280;8384;47.996;7.786;2023-03-13T08:00:46;98141.66;;;13.81;70.32
16544;BME280;8384;47.996;7.786;2023-03-13T08:03:11;98122.09;;;13.88;70.36
16544;BME280;8384;47.996;7.786;2023-03-13T08:05:37;98131.69;;;14.23;69.42
16544;BME280;8384;47.996;7.786;2023-03-13T08:08:02;98141.72;;;14.14;69.28
16544;BME280;8384;47.996;7.786;2023-03-13T08:10:27;98127.25;;;14.08;69.42
16544;BME280;8384;47.996;7.786;2023-03-13T08:12:54;98115.31;;;13.99;69.73
16544;BME280;8384;47.996;7.786;2023-03-13T08:15:20;98127.84;;;14.05;68.77
16544;BME280;8384;47.996;7.786;2023-03-13T08:17:49;98121.31;;;14.34;68.39
16544;BME280;8384;47.996;7.786;2023-03-13T08:20:15;98095.31;;;14.13;68.70
16544;BME280;8384;47.996;7.786;2023-03-13T08:22:41;98130.59;;;14.38;68.48
16544;BME280;8384;47.996;7.786;2023-03-13T08:25:07;98126.97;;;14.57;67.68
16544;BME280;8384;47.996;7.786;2023-03-13T08:27:32;98132.31;;;14.34;67.98
16544;BME280;8384;47.996;7.786;2023-03-13T08:29:57;98138.97;;;14.47;68.18
16544;BME280;8384;47.996;7.786;2023-03-13T08:32:22;98118.63;;;14.62;67.02
16544;BME280;8384;47.996;7.786;2023-03-13T08:34:48;98135.66;;;14.64;66.69
16544;BME280;8384;47.996;7.786;2023-03-13T08:37:16;98128.84;;;14.76;66.51
16544;BME280;8384;47.996;7.786;2023-03-13T08:39:41;98137.84;;;14.95;66.88
16544;BME280;8384;47.996;7.786;2023-03-13T08:42:10;98146.91;;;14.49;67.43
16544;BME280;8384;47.996;7.786;2023-03-13T08:44:35;98139.00;;;14.28;68.54
16544;BME280;8384;47.996;7.786;2023-03-13T08:47:01;98132.06;;;14.17;68.21
16544;BME280;8384;47.996;7.786;2023-03-13T08:49:26;98151.03;;;14.32;67.57
16544;BME280;8384;47.996;7.786;2023-03-13T08:51:51;98127.88;;;14.52;68.01
16544;BME280;8384;47.996;7.786;2023-03-13T08:54:17;98128.66;;;14.86;66.51
16544;BME280;8384;47.996;7.786;2023-03-13T08:56:42;98116.06;;;14.66;66.16
16544;BME280;8384;47.996;7.786;2023-03-13T08:59:09;98107.34;;;14.92;65.49
16544;BME280;8384;47.996;7.786;2023-03-13T09:01:35;98080.94;;;15.19;64.40
16544;BME280;8384;47.996;7.786;2023-03-13T09:04:00;98099.19;;;15.00;64.73
16544;BME280;8384;47.996;7.786;2023-03-13T09:06:26;98101.66;;;15.16;64.88
16544;BME280;8384;47.996;7.786;2023-03-13T09:08:51;98100.34;;;15.50;63.82
16544;BME280;8384;47.996;7.786;2023-03-13T09:11:19;98082.28;;;15.21;63.33
16544;BME280;8384;47.996;7.786;2023-03-13T09:13:46;98078.06;;;15.38;63.34
16544;BME280;8384;47.996;7.786;2023-03-13T09:16:20;98069.28;;;16.18;61.54
16544;BME280;8384;47.996;7.786;2023-03-13T09:18:46;98066.75;;;16.62;59.47
16544;BME280;8384;47.996;7.786;2023-03-13T09:21:20;98066.50;;;17.21;57.18
16544;BME280;8384;47.996;7.786;2023-03-13T09:23:46;98065.16;;;17.01;58.23
16544;BME280;8384;47.996;7.786;2023-03-13T09:26:12;98063.38;;;17.05;56.86
16544;BME280;8384;47.996;7.786;2023-03-13T09:28:38;98019.09;;;16.79;55.54
16544;BME280;8384;47.996;7.786;2023-03-13T09:31:11;98056.19;;;16.96;57.51
16544;BME280;8384;47.996;7.786;2023-03-13T09:33:36;98054.91;;;16.61;57.61
16544;BME280;8384;47.996;7.786;2023-03-13T09:36:02;98040.66;;;16.68;58.10
16544;BME280;8384;47.996;7.786;2023-03-13T09:38:27;98019.00;;;17.02;56.57
16544;BME280;8384;47.996;7.786;2023-03-13T09:40:53;97988.84;;;17.23;56.55
16544;BME280;8384;47.996;7.786;2023-03-13T09:44:13;98028.44;;;17.01;55.46
16544;BME280;8384;47.996;7.786;2023-03-13T09:46:43;98035.63;;;17.28;55.23
16544;BME280;8384;47.996;7.786;2023-03-13T09:52:13;98015.69;;;16.82;57.29
16544;BME280;8384;47.996;7.786;2023-03-13T09:54:47;98026.84;;;16.68;57.58
16544;BME280;8384;47.996;7.786;2023-03-13T09:57:18;98010.44;;;16.63;57.25
16544;BME280;8384;47.996;7.786;2023-03-13T09:59:56;97974.50;;;16.37;57.66
16544;BME280;8384;47.996;7.786;2023-03-13T10:02:32;97992.41;;;17.32;55.83
16544;BME280;8384;47.996;7.786;2023-03-13T10:05:20;97980.66;;;17.79;53.69
16544;BME280;8384;47.996;7.786;2023-03-13T10:07:46;97987.41;;;18.26;53.10
16544;BME280;8384;47.996;7.786;2023-03-13T10:10:23;97981.53;;;17.45;54.98
16544;BME280;8384;47.996;7.786;2023-03-13T10:12:56;97975.50;;;17.51;55.06
16544;BME280;8384;47.996;7.786;2023-03-13T10:15:44;97952.91;;;17.49;54.90
16544;BME280;8384;47.996;7.786;2023-03-13T10:18:15;97969.31;;;17.63;55.27
16544;BME280;8384;47.996;7.786;2023-03-13T10:20:43;97957.97;;;17.47;55.34
16544;BME280;8384;47.996;7.786;2023-03-13T10:25:47;97954.41;;;17.29;55.53
16544;BME280;8384;47.996;7.786;2023-03-13T10:28:15;97931.78;;;17.53;54.83
16544;BME280;8384;47.996;7.786;2023-03-13T10:30:53;97934.59;;;18.01;53.87
16544;BME280;8384;47.996;7.786;2023-03-13T10:33:25;97923.66;;;18.13;53.04
16544;BME280;8384;47.996;7.786;2023-03-13T10:36:11;97915.41;;;18.05;53.04
16544;BME280;8384;47.996;7.786;2023-03-13T10:38:48;97909.00;;;18.22;52.46
16544;BME280;8384;47.996;7.786;2023-03-13T10:41:35;97892.34;;;18.31;52.96
16544;BME280;8384;47.996;7.786;2023-03-13T10:44:06;97897.28;;;18.16;52.55
16544;BME280;8384;47.996;7.786;2023-03-13T10:46:44;97878.81;;;18.38;52.15
16544;BME280;8384;47.996;7.786;2023-03-13T10:49:23;97874.31;;;18.54;51.20
16544;BME280;8384;47.996;7.786;2023-03-13T10:51:54;97874.72;;;19.08;50.37
16544;BME280;8384;47.996;7.786;2023-03-13T10:54:23;97862.06;;;19.40;49.84
16544;BME280;8384;47.996;7.786;2023-03-13T10:56:50;97849.88;;;19.78;47.84
16544;BME280;8384;47.996;7.786;2023-03-13T10:59:24;97861.28;;;20.11;46.92
16544;BME280;8384;47.996;7.786;2023-03-13T11:01:51;97849.69;;;20.33;46.22
16544;BME280;8384;47.996;7.786;2023-03-13T11:04:28;97845.34;;;20.86;44.18
16544;BME280;8384;47.996;7.786;2023-03-13T11:07:00;97843.03;;;19.97;45.63
16544;BME280;8384;47.996;7.786;2023-03-13T11:09:26;97814.84;;;19.49;47.13
16544;BME280;8384;47.996;7.786;2023-03-13T11:11:54;97825.75;;;19.79;46.83
16544;BME280;8384;47.996;7.786;2023-03-13T11:14:21;97826.00;;;19.86;46.00
16544;BME280;8384;47.996;7.786;2023-03-13T11:16:57;97801.41;;;19.97;44.70
16544;BME280;8384;47.996;7.786;2023-03-13T11:22:16;97796.50;;;20.44;44.48
16544;BME280;8384;47.996;7.786;2023-03-13T11:24:55;97790.09;;;20.56;44.38
16544;BME280;8384;47.996;7.786;2023-03-13T11:27:34;97793.47;;;21.18;42.93
16544;BME280;8384;47.996;7.786;2023-03-13T11:33:02;97765.81;;;20.52;43.56
16544;BME280;8384;47.996;7.786;2023-03-13T11:35:38;97749.09;;;20.77;42.63
16544;BME280;8384;47.996;7.786;2023-03-13T11:38:17;97769.38;;;20.65;43.71
16544;BME280;8384;47.996;7.786;2023-03-13T11:43:41;97748.69;;;20.91;42.68
16544;BME280;8384;47.996;7.786;2023-03-13T11:46:17;97759.19;;;20.57;42.54
16544;BME280;8384;47.996;7.786;2023-03-13T11:51:46;97751.47;;;20.91;43.14
16544;BME280;8384;47.996;7.786;2023-03-13T11:57:06;97714.19;;;20.92;41.87
16544;BME280;8384;47.996;7.786;2023-03-13T12:02:36;97723.06;;;20.98;41.97
16544;BME280;8384;47.996;7.786;2023-03-13T12:05:08;97704.38;;;20.54;43.36
16544;BME280;8384;47.996;7.786;2023-03-13T12:07:35;97686.31;;;20.60;43.64
16544;BME280;8384;47.996;7.786;2023-03-13T12:10:10;97676.81;;;21.06;43.51
16544;BME280;8384;47.996;7.786;2023-03-13T12:15:21;97672.25;;;21.62;42.03
16544;BME280;8384;47.996;7.786;2023-03-13T12:17:52;97644.66;;;21.88;41.20
16544;BME280;8384;47.996;7.786;2023-03-13T12:20:26;97645.69;;;21.80;40.62
16544;BME280;8384;47.996;7.786;2023-03-13T12:23:15;97637.56;;;21.91;40.58
16544;BME280;8384;47.996;7.786;2023-03-13T12:25:47;97620.97;;;21.43;41.48
16544;BME280;8384;47.996;7.786;2023-03-13T12:28:18;97618.59;;;21.25;41.68
16544;BME280;8384;47.996;7.786;2023-03-13T12:31:25;97615.97;;;21.84;40.88
16544;BME280;8384;47.996;7.786;2023-03-13T12:33:57;97580.72;;;21.72;40.27
16544;BME280;8384;47.996;7.786;2023-03-13T12:36:32;97597.69;;;22.03;39.83
16544;BME280;8384;47.996;7.786;2023-03-13T12:41:53;97581.09;;;21.71;40.95
16544;BME280;8384;47.996;7.786;2023-03-13T12:44:22;97579.41;;;22.25;39.37
16544;BME280;8384;47.996;7.786;2023-03-13T12:47:09;97559.44;;;22.62;38.70
16544;BME280;8384;47.996;7.786;2023-03-13T12:55:22;97556.38;;;22.68;39.45
16544;BME280;8384;47.996;7.786;2023-03-13T13:00:43;97557.38;;;22.16;39.12
16544;BME280;8384;47.996;7.786;2023-03-13T13:05:57;97533.72;;;21.12;41.17
16544;BME280;8384;47.996;7.786;2023-03-13T13:08:25;97522.28;;;21.33;41.04
16544;BME280;8384;47.996;7.786;2023-03-13T13:10:50;97518.84;;;21.40;40.61
16544;BME280;8384;47.996;7.786;2023-03-13T13:13:27;97500.03;;;21.69;40.51
16544;BME280;8384;47.996;7.786;2023-03-13T13:16:00;97486.44;;;20.92;41.01
16544;BME280;8384;47.996;7.786;2023-03-13T13:18:28;97499.78;;;21.03;42.59
16544;BME280;8384;47.996;7.786;2023-03-13T13:23:30;97484.31;;;21.21;41.23
16544;BME280;8384;47.996;7.786;2023-03-13T13:28:56;97485.59;;;21.08;42.15
16544;BME280;8384;47.996;7.786;2023-03-13T13:34:06;97471.09;;;20.98;42.67
16544;BME280;8384;47.996;7.786;2023-03-13T13:36:40;97453.19;;;20.96;42.01
16544;BME280;8384;47.996;7.786;2023-03-13T13:39:28;97455.50;;;20.94;42.85
16544;BME280;8384;47.996;7.786;2023-03-13T13:41:56;97447.28;;;21.17;42.49
16544;BME280;8384;47.996;7.786;2023-03-13T13:44:28;97447.19;;;21.49;41.87
16544;BME280;8384;47.996;7.786;2023-03-13T13:46:56;97449.44;;;21.43;41.59
16544;BME280;8384;47.996;7.786;2023-03-13T13:49:29;97428.03;;;20.89;42.31
16544;BME280;8384;47.996;7.786;2023-03-13T13:54:33;97429.53;;;21.22;41.79
16544;BME280;8384;47.996;7.786;2023-03-13T13:57:19;97421.84;;;21.15;42.56
16544;BME280;8384;47.996;7.786;2023-03-13T13:59:50;97413.56;;;21.78;41.09
16544;BME280;8384;47.996;7.786;2023-03-13T14:02:27;97404.34;;;21.93;40.34
16544;BME280;8384;47.996;7.786;2023-03-13T14:05:06;97406.00;;;22.21;40.19
16544;BME280;8384;47.996;7.786;2023-03-13T14:07:54;97406.44;;;22.23;40.37
16544;BME280;8384;47.996;7.786;2023-03-13T14:10:37;97397.88;;;22.36;40.11
16544;BME280;8384;47.996;7.786;2023-03-13T14:13:18;97387.84;;;22.54;38.24
16544;BME280;8384;47.996;7.786;2023-03-13T14:15:51;97384.41;;;21.68;40.51
16544;BME280;8384;47.996;7.786;2023-03-13T14:20:59;97374.47;;;21.27;41.29